createdAt,value
2023-02-26T00:00:15.303Z,97626.08
2023-02-26T00:03:21.554Z,97619.30
2023-02-26T00:06:29.740Z,97633.16
2023-02-26T00:09:36.300Z,97650.20
2023-02-26T00:12:43.864Z,97652.67
2023-02-26T00:15:52.585Z,97649.11
2023-02-26T00:19:00.405Z,97645.79
2023-02-26T00:22:08.020Z,97658.14
2023-02-26T00:25:14.834Z,97663.86
2023-02-26T00:28:22.191Z,97668.59
2023-02-26T00:31:29.241Z,97668.34
2023-02-26T00:34:36.470Z,97664.52
2023-02-26T00:38:03.170Z,97664.31
2023-02-26T00:41:11.242Z,97667.90
2023-02-26T00:44:18.705Z,97681.55
2023-02-26T00:47:32.595Z,97688.60
2023-02-26T00:50:44.585Z,97692.52
2023-02-26T00:54:00.368Z,97697.20
2023-02-26T00:57:06.900Z,97694.98
2023-02-26T01:00:16.634Z,97693.27
2023-02-26T01:03:23.809Z,97690.11
2023-02-26T01:06:33.979Z,97683.00
2023-02-26T01:09:41.318Z,97679.78
2023-02-26T01:12:48.825Z,97680.88
2023-02-26T01:16:04.436Z,97681.45
2023-02-26T01:19:19.623Z,97681.15
2023-02-26T01:22:31.083Z,97674.48
2023-02-26T01:25:43.105Z,97660.57
2023-02-26T01:28:50.542Z,97657.04
2023-02-26T01:32:03.628Z,97651.41
2023-02-26T01:35:18.035Z,97649.02
2023-02-26T01:38:32.312Z,97654.15
2023-02-26T01:41:44.502Z,97654.33
2023-02-26T01:45:01.044Z,97660.99
2023-02-26T01:48:13.071Z,97680.13
2023-02-26T01:51:19.724Z,97685.91
2023-02-26T01:54:27.246Z,97700.13
2023-02-26T01:57:33.513Z,97702.17
2023-02-26T02:00:39.854Z,97708.08
2023-02-26T02:03:44.780Z,97718.56
2023-02-26T02:06:51.465Z,97727.00
2023-02-26T02:09:57.597Z,97728.80
2023-02-26T02:13:11.478Z,97724.51
2023-02-26T02:16:28.977Z,97729.44
2023-02-26T02:19:59.227Z,97727.80
2023-02-26T02:23:12.601Z,97726.49
2023-02-26T02:26:51.798Z,97723.27
2023-02-26T02:30:38.409Z,97736.21
2023-02-26T02:33:51.242Z,97754.81
2023-02-26T02:37:01.070Z,97759.64
2023-02-26T02:40:14.175Z,97758.73
2023-02-26T02:43:22.525Z,97754.58
2023-02-26T02:46:31.639Z,97775.89
2023-02-26T02:49:44.988Z,97790.95
2023-02-26T02:52:55.803Z,97783.16
2023-02-26T02:56:08.885Z,97778.46
2023-02-26T02:59:22.131Z,97772.91
2023-02-26T03:02:35.309Z,97771.63
2023-02-26T03:05:41.634Z,97767.07
2023-02-26T03:08:47.979Z,97758.73
2023-02-26T03:11:54.144Z,97771.98
2023-02-26T03:15:00.950Z,97779.17
2023-02-26T03:18:17.324Z,97780.40
2023-02-26T03:21:33.140Z,97791.66
2023-02-26T03:24:47.326Z,97815.16
2023-02-26T03:28:00.584Z,97820.20
2023-02-26T03:31:13.547Z,97828.08
2023-02-26T03:34:27.497Z,97843.10
2023-02-26T03:37:39.978Z,97844.91
2023-02-26T03:40:51.173Z,97857.16
2023-02-26T03:44:01.516Z,97843.96
2023-02-26T03:47:13.121Z,97852.67
2023-02-26T03:50:26.670Z,97845.77
2023-02-26T03:53:40.950Z,97856.77
2023-02-26T03:56:49.227Z,97839.66
2023-02-26T03:59:56.008Z,97843.24
2023-02-26T04:03:09.261Z,97844.72
2023-02-26T04:06:16.811Z,97852.48
2023-02-26T04:09:23.734Z,97875.21
2023-02-26T04:12:30.815Z,97895.39
2023-02-26T04:15:37.482Z,97904.37
2023-02-26T04:18:44.250Z,97915.73
2023-02-26T04:21:50.837Z,97918.95
2023-02-26T04:24:57.061Z,97920.67
2023-02-26T04:28:03.312Z,97933.02
2023-02-26T04:31:10.410Z,97930.55
2023-02-26T04:34:16.817Z,97912.02
2023-02-26T04:37:21.294Z,97928.37
2023-02-26T04:40:27.737Z,97938.27
2023-02-26T04:43:34.415Z,97935.77
2023-02-26T04:46:40.627Z,97930.75
2023-02-26T04:49:46.738Z,97920.96
2023-02-26T04:52:53.010Z,97924.88
2023-02-26T04:55:57.522Z,97925.30
2023-02-26T04:59:03.734Z,97932.89
2023-02-26T05:02:10.042Z,97927.56
2023-02-26T05:05:14.516Z,97950.90
2023-02-26T05:08:20.613Z,97940.31
2023-02-26T05:11:26.867Z,97937.52
2023-02-26T05:14:31.407Z,97945.94
2023-02-26T05:17:38.529Z,97949.14
2023-02-26T05:20:44.702Z,97947.61
2023-02-26T05:23:51.170Z,97956.50
2023-02-26T05:26:57.436Z,97964.33
2023-02-26T05:30:03.882Z,97964.20
2023-02-26T05:33:10.139Z,97971.48
2023-02-26T05:36:16.421Z,97988.28
2023-02-26T05:39:20.932Z,97995.21
2023-02-26T05:42:27.164Z,98002.36
2023-02-26T05:45:33.410Z,98011.94
2023-02-26T05:48:39.650Z,98022.98
2023-02-26T05:51:45.916Z,98039.45
2023-02-26T05:54:50.530Z,98042.23
2023-02-26T05:57:56.667Z,98050.91
2023-02-26T06:01:03.140Z,98059.06
2023-02-26T06:04:09.637Z,98073.43
2023-02-26T06:07:16.116Z,98082.45
2023-02-26T06:10:22.607Z,98080.78
2023-02-26T06:13:28.860Z,98085.29
2023-02-26T06:16:35.978Z,98092.77
2023-02-26T06:19:42.293Z,98094.61
2023-02-26T06:22:46.772Z,98091.73
2023-02-26T06:25:53.452Z,98093.27
2023-02-26T06:28:59.716Z,98099.41
2023-02-26T06:32:06.268Z,98105.00
2023-02-26T06:35:13.441Z,98109.39
2023-02-26T06:38:20.138Z,98120.61
2023-02-26T06:41:26.501Z,98126.14
2023-02-26T06:44:30.977Z,98121.61
2023-02-26T06:47:37.235Z,98118.13
2023-02-26T06:50:43.420Z,98129.63
2023-02-26T06:53:49.582Z,98136.20
2023-02-26T06:56:57.810Z,98137.89
2023-02-26T07:00:05.560Z,98142.39
2023-02-26T07:03:14.070Z,98143.06
2023-02-26T07:06:38.719Z,98159.88
2023-02-26T07:09:46.114Z,98168.50
2023-02-26T07:12:52.704Z,98173.06
2023-02-26T07:15:58.972Z,98166.01
2023-02-26T07:19:05.222Z,98168.94
2023-02-26T07:22:09.768Z,98162.97
2023-02-26T07:25:16.584Z,98168.95
2023-02-26T07:28:23.421Z,98165.58
2023-02-26T07:31:29.725Z,98167.34
2023-02-26T07:34:34.248Z,98174.08
2023-02-26T07:37:40.564Z,98179.75
2023-02-26T07:40:45.169Z,98191.98
2023-02-26T07:43:51.488Z,98208.67
2023-02-26T07:46:55.944Z,98219.14
2023-02-26T07:50:02.322Z,98227.85
2023-02-26T07:53:06.977Z,98235.52
2023-02-26T07:56:13.233Z,98240.84
2023-02-26T07:59:19.541Z,98246.05
2023-02-26T08:02:24.702Z,98250.33
2023-02-26T08:05:31.105Z,98249.35
2023-02-26T08:08:37.476Z,98250.98
2023-02-26T08:11:43.390Z,98253.48
2023-02-26T08:14:48.122Z,98256.77
2023-02-26T08:17:56.900Z,98254.59
2023-02-26T08:21:03.105Z,98253.64
2023-02-26T08:24:09.793Z,98254.56
2023-02-26T08:27:16.099Z,98262.73
2023-02-26T08:30:22.715Z,98263.88
2023-02-26T08:33:29.111Z,98267.10
2023-02-26T08:36:34.263Z,98272.86
2023-02-26T08:39:40.871Z,98272.83
2023-02-26T08:42:47.220Z,98280.90
2023-02-26T08:45:53.160Z,98282.48
2023-02-26T08:48:57.674Z,98293.15
2023-02-26T08:52:04.161Z,98294.47
2023-02-26T08:55:12.015Z,98299.59
2023-02-26T08:58:18.397Z,98297.85
2023-02-26T09:01:22.976Z,98307.48
2023-02-26T09:04:31.180Z,98324.14
2023-02-26T09:07:37.690Z,98331.20
2023-02-26T09:10:44.084Z,98340.32
2023-02-26T09:13:50.367Z,98349.91
2023-02-26T09:16:56.658Z,98357.94
2023-02-26T09:20:01.171Z,98358.41
2023-02-26T09:23:07.450Z,98365.00
2023-02-26T09:26:11.987Z,98367.38
2023-02-26T09:29:18.231Z,98369.94
2023-02-26T09:32:26.424Z,98378.45
2023-02-26T09:35:32.703Z,98380.02
2023-02-26T09:38:39.012Z,98386.42
2023-02-26T09:41:45.907Z,98384.67
2023-02-26T09:44:54.199Z,98384.80
2023-02-26T09:48:03.109Z,98389.38
2023-02-26T09:51:14.016Z,98391.39
2023-02-26T09:54:24.339Z,98393.32
2023-02-26T09:57:34.040Z,98397.44
2023-02-26T10:00:48.890Z,98399.27
2023-02-26T10:04:04.731Z,98392.39
2023-02-26T10:07:22.262Z,98390.79
2023-02-26T10:10:36.686Z,98396.06
2023-02-26T10:13:57.286Z,98400.70
2023-02-26T10:17:08.849Z,98407.56
2023-02-26T10:20:21.411Z,98409.95
2023-02-26T10:23:37.748Z,98414.33
2023-02-26T10:26:48.970Z,98421.57
2023-02-26T10:30:01.801Z,98423.31
2023-02-26T10:33:20.170Z,98426.60
2023-02-26T10:36:30.868Z,98430.55
2023-02-26T10:39:45.743Z,98437.31
2023-02-26T10:42:55.366Z,98441.05
2023-02-26T10:46:11.467Z,98449.98
2023-02-26T10:49:30.664Z,98457.88
2023-02-26T10:52:39.046Z,98469.86
2023-02-26T10:55:48.383Z,98471.99
2023-02-26T10:58:55.483Z,98476.10
2023-02-26T11:02:02.332Z,98474.73
2023-02-26T11:05:16.781Z,98472.40
2023-02-26T11:08:27.715Z,98475.38
2023-02-26T11:11:47.332Z,98478.98
2023-02-26T11:14:54.105Z,98480.63
2023-02-26T11:18:02.741Z,98484.90
2023-02-26T11:21:10.280Z,98487.58
2023-02-26T11:24:20.947Z,98487.48
2023-02-26T11:27:31.933Z,98488.90
2023-02-26T11:30:40.085Z,98493.98
2023-02-26T11:33:50.739Z,98491.44
2023-02-26T11:37:00.180Z,98493.10
2023-02-26T11:40:16.064Z,98495.24
2023-02-26T11:43:24.539Z,98497.09
2023-02-26T11:46:31.192Z,98497.26
2023-02-26T11:49:42.862Z,98497.98
2023-02-26T11:52:55.798Z,98494.73
2023-02-26T11:56:05.119Z,98494.89
2023-02-26T11:59:21.019Z,98496.40
2023-02-26T12:02:32.712Z,98506.14
2023-02-26T12:05:39.743Z,98507.05
2023-02-26T12:08:46.039Z,98520.48
2023-02-26T12:12:00.941Z,98526.90
2023-02-26T12:15:21.888Z,98530.07
2023-02-26T12:18:38.087Z,98533.63
2023-02-26T12:21:53.530Z,98540.59
2023-02-26T12:25:17.752Z,98543.52
2023-02-26T12:29:07.968Z,98551.27
2023-02-26T12:32:26.941Z,98553.05
2023-02-26T12:35:56.171Z,98552.85
2023-02-26T12:39:16.275Z,98563.05
2023-02-26T12:42:34.183Z,98569.94
2023-02-26T12:45:54.216Z,98574.73
2023-02-26T12:49:17.408Z,98576.77
2023-02-26T12:52:42.108Z,98577.30
2023-02-26T12:55:58.588Z,98582.29
2023-02-26T12:59:18.113Z,98593.25
2023-02-26T13:02:57.924Z,98600.88
2023-02-26T13:06:27.291Z,98609.85
2023-02-26T13:09:42.547Z,98601.07
2023-02-26T13:13:12.473Z,98604.31
2023-02-26T13:16:38.640Z,98606.44
2023-02-26T13:19:49.363Z,98607.43
2023-02-26T13:23:01.062Z,98617.28
2023-02-26T13:26:11.021Z,98618.48
2023-02-26T13:29:22.417Z,98625.73
2023-02-26T13:32:30.204Z,98639.27
2023-02-26T13:35:38.788Z,98653.15
2023-02-26T13:39:11.422Z,98645.45
2023-02-26T13:42:28.882Z,98645.73
2023-02-26T13:45:47.701Z,98646.55
2023-02-26T13:49:00.659Z,98645.59
2023-02-26T13:52:06.990Z,98658.04
2023-02-26T13:55:36.591Z,98661.27
2023-02-26T13:58:44.203Z,98664.58
2023-02-26T14:01:55.302Z,98673.52
2023-02-26T14:05:02.559Z,98674.92
2023-02-26T14:08:27.658Z,98682.88
2023-02-26T14:12:01.057Z,98688.15
2023-02-26T14:15:41.672Z,98693.45
2023-02-26T14:18:54.850Z,98700.59
2023-02-26T14:22:15.983Z,98699.90
2023-02-26T14:25:33.151Z,98700.70
2023-02-26T14:28:47.338Z,98708.26
2023-02-26T14:32:16.558Z,98714.42
2023-02-26T14:35:26.691Z,98718.73
2023-02-26T14:38:37.368Z,98721.11
2023-02-26T14:41:44.638Z,98721.98
2023-02-26T14:44:53.942Z,98722.07
2023-02-26T14:48:02.658Z,98724.13
2023-02-26T14:51:21.896Z,98735.84
2023-02-26T14:54:50.187Z,98739.67
2023-02-26T14:58:06.256Z,98748.10
2023-02-26T15:01:22.079Z,98751.73
2023-02-26T15:04:51.141Z,98756.40
2023-02-26T15:08:14.428Z,98757.98
2023-02-26T15:11:35.553Z,98759.39
2023-02-26T15:15:11.310Z,98763.55
2023-02-26T15:18:22.798Z,98769.55
2023-02-26T15:21:40.390Z,98770.80
2023-02-26T15:24:47.434Z,98781.59
2023-02-26T15:27:54.240Z,98794.38
2023-02-26T15:31:02.306Z,98801.36
2023-02-26T15:34:12.698Z,98813.48
2023-02-26T15:37:28.344Z,98827.27
2023-02-26T15:40:37.427Z,98820.63
2023-02-26T15:43:47.812Z,98818.63
2023-02-26T15:46:59.429Z,98826.96
2023-02-26T15:50:06.805Z,98826.45
2023-02-26T15:53:19.904Z,98834.33
2023-02-26T15:56:29.639Z,98832.88
2023-02-26T15:59:41.825Z,98834.21
2023-02-26T16:02:50.621Z,98842.29
2023-02-26T16:05:59.078Z,98844.11
2023-02-26T16:09:07.689Z,98850.13
2023-02-26T16:12:17.805Z,98854.48
2023-02-26T16:15:31.131Z,98856.06
2023-02-26T16:18:38.061Z,98864.90
2023-02-26T16:21:45.050Z,98868.63
2023-02-26T16:24:58.969Z,98876.09
2023-02-26T16:28:08.278Z,98879.33
2023-02-26T16:31:21.146Z,98896.23
2023-02-26T16:34:41.618Z,98904.03
2023-02-26T16:37:50.165Z,98906.10
2023-02-26T16:41:03.906Z,98917.23
2023-02-26T16:44:40.809Z,98919.27
2023-02-26T16:47:48.693Z,98923.29
2023-02-26T16:51:01.324Z,98928.20
2023-02-26T16:54:10.622Z,98933.78
2023-02-26T16:57:21.683Z,98942.67
2023-02-26T17:00:31.294Z,98947.90
2023-02-26T17:03:40.730Z,98960.12
2023-02-26T17:06:48.280Z,98967.60
2023-02-26T17:09:58.531Z,98971.71
2023-02-26T17:13:16.510Z,98973.61
2023-02-26T17:16:23.358Z,98966.31
2023-02-26T17:19:29.745Z,98961.44
2023-02-26T17:22:36.154Z,98964.53
2023-02-26T17:25:45.478Z,98974.60
2023-02-26T17:28:51.999Z,98982.04
2023-02-26T17:31:58.365Z,98998.10
2023-02-26T17:35:03.252Z,99006.02
2023-02-26T17:38:13.405Z,99007.71
2023-02-26T17:41:20.974Z,99012.64
2023-02-26T17:44:27.225Z,99013.98
2023-02-26T17:47:40.043Z,99013.88
2023-02-26T17:50:54.480Z,99014.54
2023-02-26T17:54:04.688Z,99008.66
2023-02-26T17:57:22.196Z,99005.63
2023-02-26T18:00:31.639Z,99005.35
2023-02-26T18:03:42.123Z,99007.66
2023-02-26T18:06:52.624Z,99010.28
2023-02-26T18:10:04.663Z,99009.22
2023-02-26T18:13:24.188Z,99008.86
2023-02-26T18:16:37.302Z,99014.54
2023-02-26T18:19:53.423Z,99014.24
2023-02-26T18:23:04.983Z,99015.98
2023-02-26T18:26:18.901Z,99022.77
2023-02-26T18:29:27.401Z,99029.06
2023-02-26T18:32:36.818Z,99037.60
2023-02-26T18:35:46.051Z,99041.45
2023-02-26T18:38:52.260Z,99046.15
2023-02-26T18:41:58.500Z,99048.73
2023-02-26T18:45:05.149Z,99044.23
2023-02-26T18:48:13.220Z,99044.45
2023-02-26T18:51:19.560Z,99044.23
2023-02-26T18:54:24.209Z,99045.38
2023-02-26T18:57:30.774Z,99047.77
2023-02-26T19:00:37.103Z,99055.83
2023-02-26T19:03:41.672Z,99060.27
2023-02-26T19:06:48.005Z,99066.11
2023-02-26T19:09:52.672Z,99071.27
2023-02-26T19:12:59.153Z,99068.94
2023-02-26T19:16:05.738Z,99077.20
2023-02-26T19:19:12.954Z,99082.56
2023-02-26T19:22:19.310Z,99083.80
2023-02-26T19:25:27.108Z,99082.80
2023-02-26T19:28:33.614Z,99079.60
2023-02-26T19:31:40.454Z,99075.52
2023-02-26T19:34:46.952Z,99077.02
2023-02-26T19:37:51.467Z,99085.59
2023-02-26T19:40:57.927Z,99089.35
2023-02-26T19:44:04.235Z,99099.49
2023-02-26T19:47:08.772Z,99103.52
2023-02-26T19:50:16.879Z,99110.38
2023-02-26T19:53:23.215Z,99111.42
2023-02-26T19:56:27.739Z,99114.98
2023-02-26T19:59:34.202Z,99117.58
2023-02-26T20:02:40.751Z,99122.95
2023-02-26T20:05:48.033Z,99125.48
2023-02-26T20:08:54.462Z,99128.73
2023-02-26T20:12:01.372Z,99129.61
2023-02-26T20:15:09.499Z,99130.55
2023-02-26T20:18:16.052Z,99132.42
2023-02-26T20:21:23.497Z,99136.35
2023-02-26T20:24:30.911Z,99135.54
2023-02-26T20:27:37.722Z,99136.55
2023-02-26T20:30:43.983Z,99137.29
2023-02-26T20:33:50.143Z,99137.33
2023-02-26T20:36:56.846Z,99139.19
2023-02-26T20:40:05.354Z,99143.60
2023-02-26T20:43:12.438Z,99145.84
2023-02-26T20:46:18.837Z,99148.45
2023-02-26T20:49:25.709Z,99151.35
2023-02-26T20:52:32.013Z,99153.23
2023-02-26T20:55:36.725Z,99153.41
2023-02-26T20:58:42.754Z,99159.55
2023-02-26T21:01:51.389Z,99167.23
2023-02-26T21:04:57.590Z,99176.84
2023-02-26T21:08:04.317Z,99179.30
2023-02-26T21:11:10.598Z,99180.61
2023-02-26T21:14:16.839Z,99178.05
2023-02-26T21:17:21.770Z,99181.79
2023-02-26T21:20:28.008Z,99182.85
2023-02-26T21:23:34.176Z,99182.70
2023-02-26T21:26:40.461Z,99182.89
2023-02-26T21:29:45.260Z,99182.73
2023-02-26T21:32:51.929Z,99183.92
2023-02-26T21:35:58.471Z,99183.63
2023-02-26T21:39:05.741Z,99187.63
2023-02-26T21:42:14.140Z,99190.31
2023-02-26T21:45:20.591Z,99183.86
2023-02-26T21:48:26.776Z,99183.85
2023-02-26T21:51:32.977Z,99187.06
2023-02-26T21:54:37.647Z,99194.50
2023-02-26T21:57:44.330Z,99202.25
2023-02-26T22:00:50.709Z,99203.20
2023-02-26T22:03:55.290Z,99201.42
2023-02-26T22:07:01.549Z,99202.55
2023-02-26T22:10:10.041Z,99207.06
2023-02-26T22:13:16.313Z,99206.89
2023-02-26T22:16:22.972Z,99212.63
2023-02-26T22:19:29.252Z,99221.80
2023-02-26T22:22:35.460Z,99220.77
2023-02-26T22:25:41.680Z,99223.77
2023-02-26T22:28:47.969Z,99226.09
2023-02-26T22:31:54.168Z,99232.55
2023-02-26T22:35:00.563Z,99236.04
2023-02-26T22:38:05.088Z,99238.15
2023-02-26T22:41:11.392Z,99239.34
2023-02-26T22:44:15.866Z,99240.19
2023-02-26T22:47:22.022Z,99242.63
2023-02-26T22:50:28.168Z,99243.28
2023-02-26T22:53:34.379Z,99242.63
2023-02-26T22:56:40.552Z,99245.96
2023-02-26T22:59:46.681Z,99247.90
2023-02-26T23:02:53.508Z,99248.00
2023-02-26T23:06:00.198Z,99250.75
2023-02-26T23:09:07.080Z,99249.98
2023-02-26T23:12:14.107Z,99252.61
2023-02-26T23:15:20.416Z,99260.63
2023-02-26T23:18:24.983Z,99266.08
2023-02-26T23:21:31.991Z,99267.30
2023-02-26T23:24:38.273Z,99273.20
2023-02-26T23:27:43.264Z,99277.54
2023-02-26T23:30:49.612Z,99273.63
2023-02-26T23:33:54.215Z,99274.91
2023-02-26T23:37:00.453Z,99273.58
2023-02-26T23:40:08.144Z,99265.10
2023-02-26T23:43:14.286Z,99268.43
2023-02-26T23:46:20.563Z,99268.69
2023-02-26T23:49:25.104Z,99272.60
2023-02-26T23:52:31.417Z,99273.28
2023-02-26T23:55:35.909Z,99278.51
2023-02-26T23:58:42.196Z,99278.97
